createdAt,value
2018-04-02T00:04:36.313Z,1.10
2018-04-02T00:09:38.932Z,1.10
2018-04-02T00:14:41.579Z,1.00
2018-04-02T00:19:44.209Z,1.00
2018-04-02T00:24:46.849Z,1.00
2018-04-02T00:29:50.233Z,0.90
2018-04-02T00:34:52.866Z,0.90
2018-04-02T00:39:55.496Z,0.90
2018-04-02T00:44:58.145Z,0.90
2018-04-02T00:50:00.767Z,0.80
2018-04-02T00:55:03.405Z,0.80
2018-04-02T01:00:06.025Z,0.80
2018-04-02T01:05:09.630Z,0.70
2018-04-02T01:10:12.266Z,0.80
2018-04-02T01:15:14.889Z,0.80
2018-04-02T01:20:17.539Z,0.80
2018-04-02T01:25:20.178Z,0.90
2018-04-02T01:30:22.807Z,0.90
2018-04-02T01:35:26.222Z,0.90
2018-04-02T01:40:28.855Z,0.90
2018-04-02T01:45:31.511Z,0.90
2018-04-02T01:50:34.898Z,0.90
2018-04-02T01:55:37.527Z,0.90
2018-04-02T02:00:40.171Z,0.90
2018-04-02T02:05:42.813Z,0.90
2018-04-02T02:10:45.438Z,0.90
2018-04-02T02:15:48.086Z,0.90
2018-04-02T02:20:51.494Z,0.80
2018-04-02T02:25:54.124Z,0.80
2018-04-02T02:30:56.769Z,0.80
2018-04-02T02:36:00.178Z,0.70
2018-04-02T02:41:02.824Z,0.70
2018-04-02T02:46:05.459Z,0.80
2018-04-02T02:51:08.870Z,0.70
2018-04-02T02:56:11.498Z,0.70
2018-04-02T03:01:14.136Z,0.70
2018-04-02T03:06:16.766Z,0.70
2018-04-02T03:11:20.176Z,0.60
2018-04-02T03:16:22.801Z,0.60
2018-04-02T03:21:25.429Z,0.60
2018-04-02T03:26:28.056Z,0.60
2018-04-02T03:31:30.680Z,0.50
2018-04-02T03:36:34.310Z,0.50
2018-04-02T03:41:36.942Z,0.50
2018-04-02T03:46:39.591Z,0.50
2018-04-02T03:51:42.222Z,0.50
2018-04-02T03:56:44.849Z,0.40
2018-04-02T04:01:47.490Z,0.40
2018-04-02T04:06:50.139Z,0.40
2018-04-02T04:11:53.524Z,0.30
2018-04-02T04:16:56.164Z,0.30
2018-04-02T04:21:58.786Z,0.30
2018-04-02T04:27:01.442Z,0.20
2018-04-02T04:32:04.081Z,0.20
2018-04-02T04:37:07.472Z,0.10
2018-04-02T04:42:10.113Z,0.10
2018-04-02T04:47:12.741Z,0.10
2018-04-02T04:52:15.388Z,0.10
2018-04-02T04:57:18.038Z,0.20
2018-04-02T05:02:21.429Z,0.20
2018-04-02T05:07:24.081Z,0.20
2018-04-02T05:12:26.732Z,0.30
2018-04-02T05:17:30.126Z,0.40
2018-04-02T05:22:32.762Z,0.40
2018-04-02T05:27:35.417Z,0.40
2018-04-02T05:32:49.415Z,0.40
2018-04-02T05:37:52.806Z,0.50
2018-04-02T05:42:55.498Z,0.40
2018-04-02T05:47:58.149Z,0.40
2018-04-02T05:53:00.798Z,0.50
2018-04-02T05:58:03.425Z,0.50
2018-04-02T06:03:06.064Z,0.60
2018-04-02T06:08:08.699Z,0.60
2018-04-02T06:13:11.343Z,0.60
2018-04-02T06:18:13.997Z,0.60
2018-04-02T06:23:17.392Z,0.60
2018-04-02T06:28:20.040Z,0.50
2018-04-02T06:33:28.473Z,0.60
2018-04-02T06:38:31.116Z,0.70
2018-04-02T06:43:33.762Z,0.70
2018-04-02T06:48:36.573Z,0.70
2018-04-02T06:53:39.222Z,0.80
2018-04-02T06:58:42.623Z,0.90
2018-04-02T07:03:45.281Z,0.90
2018-04-02T07:08:48.688Z,1.20
2018-04-02T07:13:51.309Z,1.10
2018-04-02T07:18:53.960Z,1.20
2018-04-02T07:23:56.631Z,1.30
2018-04-02T07:28:59.286Z,1.40
2018-04-02T07:34:01.920Z,1.50
2018-04-02T07:39:05.410Z,1.60
2018-04-02T07:44:08.838Z,1.90
2018-04-02T07:49:11.499Z,1.80
2018-04-02T07:54:14.125Z,2.10
2018-04-02T07:59:17.530Z,2.20
2018-04-02T08:04:20.194Z,2.20
2018-04-02T08:09:22.838Z,2.30
2018-04-02T08:14:25.653Z,2.50
2018-04-02T08:19:28.309Z,2.60
2018-04-02T08:24:31.720Z,2.50
2018-04-02T08:29:34.346Z,2.40
2018-04-02T08:34:36.999Z,2.70
2018-04-02T08:39:40.417Z,3.10
2018-04-02T08:50:11.634Z,3.60
2018-04-02T08:55:14.285Z,3.70
2018-04-02T09:00:16.921Z,3.90
2018-04-02T09:05:19.621Z,4.10
2018-04-02T09:10:22.237Z,4.50
2018-04-02T09:15:24.867Z,4.70
2018-04-02T09:20:27.506Z,4.80
2018-04-02T09:25:30.141Z,5.20
2018-04-02T09:30:32.774Z,5.30
2018-04-02T09:35:36.194Z,6.00
2018-04-02T09:40:38.830Z,6.00
2018-04-02T09:45:41.489Z,6.60
2018-04-02T09:50:44.117Z,7.10
2018-04-02T09:55:46.742Z,7.60
2018-04-02T10:00:50.138Z,8.90
2018-04-02T10:05:52.778Z,8.90
2018-04-02T10:10:55.404Z,9.30
2018-04-02T10:15:59.030Z,10.10
2018-04-02T10:21:01.667Z,10.40
2018-04-02T11:04:24.442Z,10.50
2018-04-02T11:07:23.729Z,7.30
2018-04-02T11:09:56.938Z,7.30
2018-04-02T11:12:29.582Z,7.40
2018-04-02T11:15:02.183Z,8.20
2018-04-02T11:17:35.537Z,8.10
2018-04-02T11:20:08.152Z,8.00
2018-04-02T11:22:40.745Z,7.20
2018-04-02T11:25:18.737Z,6.80
2018-04-02T11:27:52.238Z,7.40
2018-04-02T11:30:24.865Z,7.60
2018-04-02T11:32:57.469Z,7.60
2018-04-02T11:35:31.084Z,7.40
2018-04-02T11:38:03.681Z,7.00
2018-04-02T11:40:36.317Z,7.00
2018-04-02T11:43:09.087Z,7.30
2018-04-02T11:45:45.186Z,8.00
2018-04-02T11:48:17.985Z,8.30
2018-04-02T11:50:50.649Z,8.10
2018-04-02T11:53:24.013Z,8.50
2018-04-02T11:55:56.752Z,8.50
2018-04-02T11:58:30.105Z,8.30
2018-04-02T12:01:02.738Z,8.30
2018-04-02T12:03:36.514Z,8.30
2018-04-02T12:06:09.150Z,8.10
2018-04-02T12:08:41.746Z,8.70
2018-04-02T12:11:16.043Z,8.90
2018-04-02T12:13:48.642Z,8.70
2018-04-02T12:16:21.280Z,8.80
2018-04-02T12:18:54.650Z,9.50
2018-04-02T12:21:27.262Z,9.40
2018-04-02T12:23:59.848Z,9.00
2018-04-02T12:26:32.470Z,9.10
2018-04-02T12:29:05.067Z,8.30
2018-04-02T12:31:37.707Z,7.80
2018-04-02T12:34:10.302Z,8.00
2018-04-02T12:36:42.934Z,8.30
2018-04-02T12:39:15.555Z,8.70
2018-04-02T12:41:48.169Z,9.30
2018-04-02T12:44:20.787Z,8.40
2018-04-02T12:46:55.007Z,7.90
2018-04-02T12:49:27.607Z,8.30
2018-04-02T12:52:00.218Z,8.60
2018-04-02T12:54:33.577Z,9.10
2018-04-02T12:57:06.198Z,9.00
2018-04-02T12:59:39.573Z,8.20
2018-04-02T13:02:12.219Z,8.20
2018-04-02T13:04:45.611Z,8.70
2018-04-02T13:07:18.217Z,8.70
2018-04-02T13:09:51.578Z,8.40
2018-04-02T13:12:24.194Z,8.40
2018-04-02T13:14:56.794Z,9.10
2018-04-02T13:17:29.404Z,9.30
2018-04-02T13:20:02.001Z,9.00
2018-04-02T13:22:35.401Z,9.30
2018-04-02T13:25:11.463Z,9.30
2018-04-02T13:27:44.093Z,8.70
2018-04-02T13:30:16.686Z,8.90
2018-04-02T13:32:49.302Z,9.10
2018-04-02T13:35:21.906Z,8.90
2018-04-02T13:37:54.563Z,9.30
2018-04-02T13:40:27.911Z,8.70
2018-04-02T13:43:00.534Z,8.70
2018-04-02T13:45:33.130Z,9.40
2018-04-02T13:48:06.517Z,8.80
2018-04-02T13:50:39.122Z,8.70
2018-04-02T13:53:12.738Z,8.40
2018-04-02T13:55:45.330Z,9.00
2018-04-02T13:58:17.961Z,8.80
2018-04-02T14:00:51.910Z,8.90
2018-04-02T14:03:24.526Z,9.40
2018-04-02T14:05:57.123Z,9.90
2018-04-02T14:08:29.734Z,9.80
2018-04-02T14:11:03.097Z,9.70
2018-04-02T14:13:35.718Z,9.60
2018-04-02T14:16:08.305Z,9.60
2018-04-02T14:18:40.936Z,9.90
2018-04-02T14:21:15.009Z,9.50
2018-04-02T14:23:47.678Z,9.70
2018-04-02T14:26:20.278Z,8.90
2018-04-02T14:28:54.352Z,9.10
2018-04-02T14:31:27.718Z,9.60
2018-04-02T14:34:00.347Z,9.50
2018-04-02T14:36:32.947Z,9.70
2018-04-02T14:39:06.346Z,9.60
2018-04-02T14:41:39.713Z,9.10
2018-04-02T14:44:12.326Z,9.10
2018-04-02T14:46:44.942Z,9.30
2018-04-02T14:49:18.325Z,9.60
2018-04-02T14:51:50.981Z,9.50
2018-04-02T14:54:23.730Z,9.70
2018-04-02T14:56:57.691Z,9.40
2018-04-02T14:59:30.345Z,9.60
2018-04-02T15:02:03.657Z,9.80
2018-04-02T15:04:38.006Z,9.50
2018-04-02T15:07:11.370Z,9.40
2018-04-02T15:09:43.981Z,9.40
2018-04-02T15:12:16.634Z,9.50
2018-04-02T15:14:49.250Z,9.50
2018-04-02T15:17:21.905Z,9.60
2018-04-02T15:19:56.424Z,9.40
2018-04-02T15:22:29.045Z,9.40
2018-04-02T15:25:04.775Z,9.50
2018-04-02T15:27:37.398Z,9.70
2018-04-02T15:30:10.014Z,9.80
2018-04-02T15:32:42.618Z,9.50
2018-04-02T15:35:15.255Z,9.20
2018-04-02T15:37:47.944Z,8.80
2018-04-02T15:40:20.559Z,8.80
2018-04-02T15:42:53.158Z,8.90
2018-04-02T15:45:27.714Z,8.80
2018-04-02T15:48:00.313Z,8.80
2018-04-02T15:50:32.929Z,8.80
2018-04-02T15:53:06.290Z,8.80
2018-04-02T15:55:38.916Z,8.70
2018-04-02T15:58:11.506Z,8.80
2018-04-02T16:00:44.953Z,8.60
2018-04-02T16:03:17.557Z,8.60
2018-04-02T16:05:50.244Z,8.70
2018-04-02T16:08:23.768Z,8.80
2018-04-02T16:10:56.402Z,8.60
2018-04-02T16:13:28.993Z,8.80
2018-04-02T16:16:02.992Z,8.70
2018-04-02T16:18:35.586Z,8.70
2018-04-02T16:21:08.241Z,8.70
2018-04-02T16:23:40.875Z,8.60
2018-04-02T16:26:13.516Z,8.70
2018-04-02T16:28:46.103Z,8.60
2018-04-02T16:31:18.712Z,8.60
2018-04-02T16:33:51.369Z,8.60
2018-04-02T16:36:23.978Z,8.60
2018-04-02T16:38:56.585Z,8.50
2018-04-02T16:41:29.210Z,8.50
2018-04-02T16:44:01.823Z,8.50
2018-04-02T16:46:34.454Z,8.50
2018-04-02T16:49:07.041Z,8.50
2018-04-02T16:51:40.864Z,8.40
2018-04-02T16:54:13.476Z,8.40
2018-04-02T16:56:46.125Z,8.40
2018-04-02T16:59:19.496Z,8.40
2018-04-02T17:01:52.139Z,8.30
2018-04-02T17:04:25.530Z,8.30
2018-04-02T17:06:58.925Z,8.20
2018-04-02T17:09:31.527Z,8.20
2018-04-02T17:12:04.161Z,8.20
2018-04-02T17:14:36.823Z,8.20
2018-04-02T17:17:10.205Z,8.10
2018-04-02T17:19:42.818Z,8.10
2018-04-02T17:22:16.223Z,8.00
2018-04-02T17:24:49.603Z,8.00
2018-04-02T17:27:22.223Z,8.00
2018-04-02T17:29:54.833Z,8.00
2018-04-02T17:32:28.227Z,7.90
2018-04-02T17:35:00.821Z,7.80
2018-04-02T17:37:33.435Z,7.80
2018-04-02T17:40:06.046Z,7.80
2018-04-02T17:42:38.678Z,7.80
2018-04-02T17:45:11.271Z,7.70
2018-04-02T17:47:43.901Z,7.70
2018-04-02T17:50:17.264Z,7.60
2018-04-02T17:52:49.896Z,7.60
2018-04-02T17:55:23.259Z,7.50
2018-04-02T17:57:55.877Z,7.50
2018-04-02T18:00:28.465Z,7.50
2018-04-02T18:03:01.083Z,7.50
2018-04-02T18:05:34.450Z,7.50
2018-04-02T18:08:07.838Z,7.50
2018-04-02T18:10:40.442Z,7.50
2018-04-02T18:13:13.089Z,7.40
2018-04-02T18:15:46.510Z,7.20
2018-04-02T18:18:19.167Z,7.20
2018-04-02T18:20:51.765Z,7.20
2018-04-02T18:23:24.374Z,7.10
2018-04-02T18:25:57.737Z,6.90
2018-04-02T18:28:30.365Z,6.90
2018-04-02T18:31:02.953Z,6.80
2018-04-02T18:33:35.578Z,6.70
2018-04-02T18:36:08.173Z,6.60
2018-04-02T18:38:40.795Z,6.60
2018-04-02T18:41:13.399Z,6.60
2018-04-02T18:43:46.033Z,6.60
2018-04-02T18:46:19.404Z,6.50
2018-04-02T18:48:52.050Z,6.50
2018-04-02T18:51:24.665Z,6.50
2018-04-02T18:53:57.293Z,6.50
2018-04-02T18:56:29.887Z,6.50
2018-04-02T18:59:02.527Z,6.50
2018-04-02T19:01:35.113Z,6.50
2018-04-02T19:04:07.738Z,6.40
2018-04-02T19:06:40.361Z,6.40
2018-04-02T19:09:13.880Z,6.30
2018-04-02T19:11:47.247Z,6.30
2018-04-02T19:14:19.961Z,6.30
2018-04-02T19:16:52.560Z,6.30
2018-04-02T19:19:25.181Z,6.30
2018-04-02T19:21:57.884Z,6.30
2018-04-02T19:24:30.502Z,6.30
2018-04-02T19:27:03.278Z,6.30
2018-04-02T19:29:38.006Z,6.20
2018-04-02T19:32:10.601Z,6.20
2018-04-02T19:34:43.233Z,6.20
2018-04-02T19:37:15.827Z,6.10
2018-04-02T19:39:48.530Z,6.20
2018-04-02T19:42:21.124Z,6.20
2018-04-02T19:44:53.738Z,6.20
2018-04-02T19:47:27.101Z,6.10
2018-04-02T19:49:59.725Z,6.10
2018-04-02T19:52:35.696Z,6.20
2018-04-02T19:55:08.382Z,6.10
2018-04-02T19:57:40.983Z,6.10
2018-04-02T20:00:13.602Z,6.10
2018-04-02T20:02:46.333Z,6.10
2018-04-02T20:05:19.078Z,6.10
2018-04-02T20:07:51.857Z,6.10
2018-04-02T20:10:24.552Z,6.10
2018-04-02T20:12:57.217Z,6.00
2018-04-02T20:15:30.810Z,6.10
2018-04-02T20:18:03.529Z,6.00
2018-04-02T20:20:36.376Z,6.10
2018-04-02T20:23:09.054Z,6.10
2018-04-02T20:25:41.682Z,6.00
2018-04-02T20:28:14.290Z,6.00
2018-04-02T20:30:46.991Z,6.00
2018-04-02T20:33:19.618Z,6.00
2018-04-02T20:35:52.314Z,6.00
2018-04-02T20:38:25.669Z,6.00
2018-04-02T20:40:58.301Z,6.00
2018-04-02T20:43:30.898Z,6.00
2018-04-02T20:46:03.528Z,6.00
2018-04-02T20:48:36.127Z,6.00
2018-04-02T20:51:09.587Z,6.00
2018-04-02T20:53:42.190Z,6.00
2018-04-02T20:56:15.584Z,5.90
2018-04-02T20:58:48.174Z,5.90
2018-04-02T21:01:20.788Z,5.90
2018-04-02T21:03:54.153Z,5.90
2018-04-02T21:06:26.790Z,5.80
2018-04-02T21:09:00.978Z,5.80
2018-04-02T21:11:33.606Z,5.80
2018-04-02T21:14:06.212Z,5.90
2018-04-02T21:16:38.846Z,5.90
2018-04-02T21:19:11.519Z,5.80
2018-04-02T21:21:44.150Z,5.80
2018-04-02T21:24:16.753Z,5.80
2018-04-02T21:26:49.385Z,5.80
2018-04-02T21:29:21.984Z,5.80
2018-04-02T21:31:54.601Z,5.70
2018-04-02T21:34:27.230Z,5.80
2018-04-02T21:37:00.638Z,5.70
2018-04-02T21:39:33.234Z,5.70
2018-04-02T21:42:06.618Z,5.70
2018-04-02T21:44:39.217Z,5.70
2018-04-02T21:47:11.844Z,5.70
2018-04-02T21:49:45.355Z,5.70
2018-04-02T21:52:17.983Z,5.70
2018-04-02T21:54:50.594Z,5.70
2018-04-02T21:57:23.230Z,5.70
2018-04-02T21:59:56.597Z,5.60
2018-04-02T22:02:29.210Z,5.60
2018-04-02T22:05:01.820Z,5.60
2018-04-02T22:07:35.207Z,5.60
2018-04-02T22:10:07.802Z,5.60
2018-04-02T22:12:40.421Z,5.60
2018-04-02T22:15:13.018Z,5.60
2018-04-02T22:17:45.634Z,5.60
2018-04-02T22:20:18.241Z,5.60
2018-04-02T22:22:50.881Z,5.60
2018-04-02T22:25:24.255Z,5.60
2018-04-02T22:27:56.874Z,5.60
2018-04-02T22:30:30.234Z,5.60
2018-04-02T22:33:02.878Z,5.50
2018-04-02T22:35:36.241Z,5.60
2018-04-02T22:38:08.873Z,5.60
2018-04-02T22:40:42.233Z,5.60
2018-04-02T22:43:14.870Z,5.60
2018-04-02T22:45:47.482Z,5.60
2018-04-02T22:48:20.110Z,5.60
2018-04-02T22:50:52.715Z,5.60
2018-04-02T22:53:25.349Z,5.60
2018-04-02T22:55:58.722Z,5.60
2018-04-02T22:58:31.350Z,5.50
2018-04-02T23:01:04.717Z,5.50
2018-04-02T23:03:37.338Z,5.60
2018-04-02T23:06:10.702Z,5.60
2018-04-02T23:08:43.322Z,5.60
2018-04-02T23:11:15.925Z,5.60
2018-04-02T23:13:48.565Z,5.60
2018-04-02T23:16:21.173Z,5.60
2018-04-02T23:18:53.794Z,5.60
2018-04-02T23:21:26.399Z,5.60
2018-04-02T23:23:59.786Z,5.50
2018-04-02T23:26:32.383Z,5.50
2018-04-02T23:29:05.016Z,5.50
2018-04-02T23:31:37.610Z,5.50
2018-04-02T23:34:10.224Z,5.50
2018-04-02T23:36:42.829Z,5.50
2018-04-02T23:39:15.482Z,5.50
2018-04-02T23:41:48.090Z,5.50
2018-04-02T23:44:20.717Z,5.50
2018-04-02T23:46:53.326Z,5.40
2018-04-02T23:49:25.968Z,5.40
2018-04-02T23:51:58.567Z,5.40
2018-04-02T23:54:31.205Z,5.40
2018-04-02T23:57:04.579Z,5.40
2018-04-02T23:59:37.216Z,5.40
